createdAt,value
2023-02-07T00:00:16.350Z,49.15
2023-02-07T00:02:47.459Z,53.13
2023-02-07T00:05:14.623Z,53.17
2023-02-07T00:07:41.646Z,53.13
2023-02-07T00:10:08.744Z,52.95
2023-02-07T00:12:35.770Z,51.03
2023-02-07T00:15:02.292Z,52.88
2023-02-07T00:17:32.532Z,57.83
2023-02-07T00:19:59.299Z,57.22
2023-02-07T00:22:25.893Z,58.28
2023-02-07T00:24:52.599Z,61.85
2023-02-07T00:27:19.122Z,61.75
2023-02-07T00:29:45.774Z,58.35
2023-02-07T00:32:12.407Z,61.13
2023-02-07T00:34:38.977Z,65.00
2023-02-07T00:37:06.278Z,65.38
2023-02-07T00:39:32.996Z,59.28
2023-02-07T00:41:59.511Z,57.58
2023-02-07T00:44:26.445Z,56.45
2023-02-07T00:46:54.226Z,58.33
2023-02-07T00:49:20.871Z,55.17
2023-02-07T00:51:47.471Z,60.75
2023-02-07T00:54:14.141Z,61.97
2023-02-07T00:56:40.828Z,57.00
2023-02-07T00:59:07.530Z,61.92
2023-02-07T01:01:34.215Z,59.28
2023-02-07T01:04:00.874Z,57.60
2023-02-07T01:06:28.209Z,54.13
2023-02-07T01:08:59.936Z,58.42
2023-02-07T01:11:26.834Z,56.60
2023-02-07T01:13:53.594Z,53.95
2023-02-07T01:16:26.201Z,53.78
2023-02-07T01:18:53.081Z,56.70
2023-02-07T01:21:22.226Z,52.58
2023-02-07T01:23:49.367Z,56.28
2023-02-07T01:26:18.026Z,51.72
2023-02-07T01:28:44.668Z,50.03
2023-02-07T01:31:13.385Z,56.70
2023-02-07T01:33:40.183Z,68.97
2023-02-07T01:36:09.134Z,65.50
2023-02-07T01:38:36.425Z,70.20
2023-02-07T01:41:03.369Z,64.32
2023-02-07T01:43:30.524Z,73.05
2023-02-07T01:45:57.179Z,70.72
2023-02-07T01:48:29.126Z,66.95
2023-02-07T01:51:00.690Z,65.22
2023-02-07T01:53:29.575Z,64.13
2023-02-07T01:56:01.229Z,56.35
2023-02-07T01:58:28.455Z,51.95
2023-02-07T02:00:55.409Z,56.72
2023-02-07T02:03:22.248Z,55.25
2023-02-07T02:05:52.092Z,53.13
2023-02-07T02:08:18.604Z,59.05
2023-02-07T02:11:02.017Z,54.85
2023-02-07T02:13:58.368Z,54.08
2023-02-07T02:17:01.851Z,50.30
2023-02-07T02:19:59.733Z,48.60
2023-02-07T02:22:55.189Z,51.30
2023-02-07T02:25:38.608Z,47.22
2023-02-07T02:28:20.393Z,53.22
2023-02-07T02:31:05.831Z,44.70
2023-02-07T02:33:57.803Z,49.80
2023-02-07T02:36:50.577Z,44.10
2023-02-07T02:39:29.101Z,55.90
2023-02-07T02:42:07.709Z,61.70
2023-02-07T02:44:47.100Z,60.33
2023-02-07T02:47:14.336Z,56.40
2023-02-07T02:49:41.389Z,60.92
2023-02-07T02:52:08.114Z,50.92
2023-02-07T02:54:37.275Z,54.70
2023-02-07T02:57:31.676Z,56.28
2023-02-07T03:00:46.373Z,45.75
2023-02-07T03:03:35.024Z,55.53
2023-02-07T03:06:04.484Z,59.15
2023-02-07T03:08:45.550Z,57.83
2023-02-07T03:11:17.483Z,57.83
2023-02-07T03:14:00.906Z,67.65
2023-02-07T03:17:01.453Z,47.95
2023-02-07T03:19:35.757Z,57.70
2023-02-07T03:22:11.290Z,58.03
2023-02-07T03:24:42.606Z,56.70
2023-02-07T03:27:13.352Z,51.88
2023-02-07T03:29:44.058Z,53.47
2023-02-07T03:32:13.207Z,55.78
2023-02-07T03:34:58.150Z,53.58
2023-02-07T03:37:48.805Z,50.92
2023-02-07T03:40:16.354Z,41.83
2023-02-07T03:42:49.658Z,46.63
2023-02-07T03:45:19.517Z,45.75
2023-02-07T03:47:46.556Z,50.65
2023-02-07T03:50:14.031Z,48.15
2023-02-07T03:52:40.634Z,48.15
2023-02-07T03:55:07.882Z,46.20
2023-02-07T03:57:34.623Z,54.58
2023-02-07T04:00:01.266Z,68.45
2023-02-07T04:02:27.814Z,63.78
2023-02-07T04:04:54.376Z,61.35
2023-02-07T04:07:20.963Z,60.88
2023-02-07T04:09:47.525Z,57.33
2023-02-07T04:12:14.042Z,68.47
2023-02-07T04:14:40.578Z,61.20
2023-02-07T04:17:07.152Z,57.85
2023-02-07T04:19:33.734Z,55.20
2023-02-07T04:22:00.241Z,49.85
2023-02-07T04:24:26.847Z,49.38
2023-02-07T04:26:53.409Z,52.85
2023-02-07T04:29:20.115Z,53.95
2023-02-07T04:31:46.750Z,45.20
2023-02-07T04:34:13.411Z,48.13
2023-02-07T04:36:40.282Z,48.88
2023-02-07T04:39:06.826Z,54.05
2023-02-07T04:41:33.451Z,51.90
2023-02-07T04:44:00.125Z,48.67
2023-02-07T04:46:28.591Z,49.80
2023-02-07T04:48:57.882Z,50.63
2023-02-07T04:51:24.466Z,52.90
2023-02-07T04:53:51.023Z,51.40
2023-02-07T04:56:17.541Z,52.65
2023-02-07T04:58:44.159Z,59.72
2023-02-07T05:01:10.726Z,47.13
2023-02-07T05:03:37.233Z,42.50
2023-02-07T05:06:04.073Z,50.40
2023-02-07T05:08:30.748Z,49.90
2023-02-07T05:10:57.437Z,83.97
2023-02-07T05:13:25.207Z,59.80
2023-02-07T05:15:52.038Z,68.43
2023-02-07T05:18:19.209Z,52.38
2023-02-07T05:20:45.741Z,51.17
2023-02-07T05:23:12.366Z,50.53
2023-02-07T05:25:40.963Z,47.15
2023-02-07T05:28:07.538Z,47.67
2023-02-07T05:30:34.173Z,54.03
2023-02-07T05:33:03.675Z,47.83
2023-02-07T05:35:41.354Z,46.25
2023-02-07T05:38:10.634Z,46.63
2023-02-07T05:40:38.538Z,49.60
2023-02-07T05:43:06.165Z,53.28
2023-02-07T05:45:33.649Z,46.78
2023-02-07T05:48:00.510Z,45.88
2023-02-07T05:50:27.409Z,49.63
2023-02-07T05:52:54.092Z,50.28
2023-02-07T05:55:20.697Z,48.25
2023-02-07T05:57:47.526Z,44.47
2023-02-07T06:00:18.004Z,50.13
2023-02-07T06:02:45.422Z,53.65
2023-02-07T06:05:15.798Z,59.05
2023-02-07T06:07:44.291Z,56.70
2023-02-07T06:10:13.718Z,49.53
2023-02-07T06:12:40.458Z,51.80
2023-02-07T06:15:07.403Z,52.78
2023-02-07T06:17:33.959Z,55.45
2023-02-07T06:20:00.559Z,48.25
2023-02-07T06:22:27.100Z,78.15
2023-02-07T06:24:53.674Z,57.30
2023-02-07T06:27:21.136Z,57.72
2023-02-07T06:29:47.817Z,52.05
2023-02-07T06:32:14.347Z,46.17
2023-02-07T06:34:41.325Z,47.72
2023-02-07T06:37:08.046Z,55.53
2023-02-07T06:39:34.698Z,46.65
2023-02-07T06:42:01.240Z,49.30
2023-02-07T06:44:27.801Z,44.67
2023-02-07T06:46:54.418Z,48.85
2023-02-07T06:49:20.991Z,43.38
2023-02-07T06:51:47.556Z,48.47
2023-02-07T06:54:14.140Z,45.03
2023-02-07T06:56:40.679Z,43.78
2023-02-07T06:59:07.287Z,43.90
2023-02-07T07:01:33.840Z,41.85
2023-02-07T07:04:00.455Z,43.83
2023-02-07T07:06:27.070Z,45.42
2023-02-07T07:08:55.493Z,55.35
2023-02-07T07:11:22.062Z,47.13
2023-02-07T07:13:48.707Z,45.83
2023-02-07T07:16:15.368Z,45.10
2023-02-07T07:18:41.990Z,46.50
2023-02-07T07:21:09.660Z,46.40
2023-02-07T07:23:36.599Z,51.47
2023-02-07T07:26:03.498Z,46.08
2023-02-07T07:28:30.364Z,45.67
2023-02-07T07:31:02.987Z,48.85
2023-02-07T07:33:29.622Z,40.78
2023-02-07T07:36:00.761Z,49.83
2023-02-07T07:38:27.670Z,43.42
2023-02-07T07:40:54.489Z,43.90
2023-02-07T07:43:21.630Z,47.33
2023-02-07T07:45:56.195Z,41.88
2023-02-07T07:48:23.940Z,53.20
2023-02-07T07:50:50.812Z,39.17
2023-02-07T07:53:18.587Z,41.75
2023-02-07T07:55:56.381Z,45.90
2023-02-07T07:58:24.643Z,46.42
2023-02-07T08:00:51.494Z,47.55
2023-02-07T08:03:19.618Z,46.80
2023-02-07T08:05:47.111Z,43.05
2023-02-07T08:08:13.899Z,43.72
2023-02-07T08:10:40.862Z,52.35
2023-02-07T08:13:08.457Z,50.25
2023-02-07T08:15:35.095Z,59.08
2023-02-07T08:18:01.757Z,42.10
2023-02-07T08:20:28.387Z,44.25
2023-02-07T08:22:54.979Z,50.95
2023-02-07T08:25:21.550Z,43.95
2023-02-07T08:27:48.154Z,57.53
2023-02-07T08:30:16.227Z,61.10
2023-02-07T08:32:42.885Z,51.67
2023-02-07T08:35:09.960Z,52.00
2023-02-07T08:37:36.706Z,51.53
2023-02-07T08:40:05.410Z,48.28
2023-02-07T08:42:32.293Z,50.80
2023-02-07T08:44:58.842Z,51.10
2023-02-07T08:47:25.456Z,50.33
2023-02-07T08:49:52.180Z,48.15
2023-02-07T08:52:18.845Z,47.63
2023-02-07T08:54:48.286Z,53.40
2023-02-07T08:57:17.339Z,41.60
2023-02-07T08:59:43.954Z,46.35
2023-02-07T09:02:11.991Z,41.45
2023-02-07T09:04:38.859Z,48.15
2023-02-07T09:07:05.426Z,44.55
2023-02-07T09:09:32.782Z,43.70
2023-02-07T09:12:02.284Z,37.97
2023-02-07T09:14:28.973Z,44.13
2023-02-07T09:16:55.939Z,40.17
2023-02-07T09:19:22.517Z,42.45
2023-02-07T09:21:49.703Z,38.58
2023-02-07T09:24:16.299Z,38.85
2023-02-07T09:26:42.868Z,34.15
2023-02-07T09:29:13.369Z,41.53
2023-02-07T09:31:40.332Z,38.00
2023-02-07T09:34:07.669Z,33.25
2023-02-07T09:36:34.809Z,30.80
2023-02-07T09:39:02.195Z,29.45
2023-02-07T09:41:59.454Z,30.65
2023-02-07T09:44:58.743Z,32.67
2023-02-07T09:47:26.871Z,31.00
2023-02-07T09:50:08.493Z,36.90
2023-02-07T09:52:49.540Z,35.15
2023-02-07T09:55:24.726Z,29.92
2023-02-07T09:58:20.092Z,29.90
2023-02-07T10:00:56.840Z,30.88
2023-02-07T10:03:24.575Z,30.33
2023-02-07T10:06:03.573Z,45.58
2023-02-07T10:08:40.853Z,30.13
2023-02-07T10:14:08.367Z,27.92
2023-02-07T10:16:34.844Z,28.63
2023-02-07T10:19:34.316Z,26.42
2023-02-07T10:22:18.583Z,28.83
2023-02-07T10:25:06.527Z,28.27
2023-02-07T10:27:54.081Z,31.50
2023-02-07T10:30:28.201Z,25.13
2023-02-07T10:33:01.240Z,24.40
2023-02-07T10:35:37.317Z,24.55
2023-02-07T10:38:04.704Z,27.48
2023-02-07T10:40:48.763Z,22.98
2023-02-07T10:43:32.593Z,26.83
2023-02-07T10:46:06.216Z,25.70
2023-02-07T10:48:34.253Z,24.00
2023-02-07T10:51:03.758Z,24.98
2023-02-07T10:53:54.359Z,34.65
2023-02-07T10:56:27.354Z,22.27
2023-02-07T10:58:57.002Z,28.05
2023-02-07T11:01:29.370Z,25.27
2023-02-07T11:03:57.107Z,22.25
2023-02-07T11:06:32.778Z,24.50
2023-02-07T11:09:18.222Z,27.73
2023-02-07T11:14:17.775Z,24.63
2023-02-07T11:16:45.765Z,24.23
2023-02-07T11:19:20.428Z,33.17
2023-02-07T11:21:49.438Z,27.77
2023-02-07T11:24:31.594Z,25.90
2023-02-07T11:27:12.796Z,22.45
2023-02-07T11:29:54.566Z,23.05
2023-02-07T11:32:24.542Z,24.35
2023-02-07T11:35:09.739Z,21.58
2023-02-07T11:37:38.333Z,25.55
2023-02-07T11:40:24.960Z,23.40
2023-02-07T11:43:18.112Z,21.85
2023-02-07T11:45:50.264Z,23.98
2023-02-07T11:48:26.052Z,24.45
2023-02-07T11:50:59.267Z,18.70
2023-02-07T11:53:36.879Z,23.40
2023-02-07T11:56:04.650Z,19.42
2023-02-07T11:58:37.951Z,19.13
2023-02-07T12:01:07.419Z,16.98
2023-02-07T12:03:42.592Z,15.02
2023-02-07T12:06:14.714Z,18.15
2023-02-07T12:08:56.033Z,15.70
2023-02-07T12:11:27.279Z,16.52
2023-02-07T12:13:58.036Z,14.75
2023-02-07T12:16:29.540Z,18.35
2023-02-07T12:19:00.193Z,15.73
2023-02-07T12:21:36.189Z,16.20
2023-02-07T12:24:18.752Z,18.50
2023-02-07T12:26:54.826Z,13.70
2023-02-07T12:29:40.090Z,14.43
2023-02-07T12:32:06.854Z,14.88
2023-02-07T12:34:52.284Z,16.45
2023-02-07T12:37:24.862Z,13.05
2023-02-07T12:40:23.750Z,16.65
2023-02-07T12:43:02.844Z,16.63
2023-02-07T12:45:55.316Z,19.67
2023-02-07T12:48:31.137Z,16.40
2023-02-07T12:51:25.007Z,15.23
2023-02-07T12:54:16.880Z,16.25
2023-02-07T12:57:08.436Z,16.60
2023-02-07T12:59:53.433Z,14.20
2023-02-07T13:02:55.095Z,15.18
2023-02-07T13:05:51.561Z,15.43
2023-02-07T13:08:26.221Z,12.50
2023-02-07T13:11:08.503Z,13.20
2023-02-07T13:13:53.548Z,16.42
2023-02-07T13:16:34.117Z,16.95
2023-02-07T13:19:22.508Z,16.30
2023-02-07T13:22:05.828Z,15.43
2023-02-07T13:24:33.619Z,15.10
2023-02-07T13:27:12.658Z,18.83
2023-02-07T13:29:42.837Z,14.02
2023-02-07T13:32:15.553Z,15.05
2023-02-07T13:34:56.364Z,15.82
2023-02-07T13:37:31.846Z,15.80
2023-02-07T13:40:28.171Z,13.75
2023-02-07T13:43:06.497Z,20.85
2023-02-07T13:45:43.563Z,16.52
2023-02-07T13:48:27.792Z,14.65
2023-02-07T13:51:24.073Z,14.40
2023-02-07T13:54:08.999Z,15.93
2023-02-07T13:56:55.669Z,15.07
2023-02-07T14:00:07.629Z,21.00
2023-02-07T14:02:42.393Z,16.77
2023-02-07T14:05:23.002Z,15.18
2023-02-07T14:07:58.044Z,16.00
2023-02-07T14:13:06.888Z,18.60
2023-02-07T14:15:36.480Z,19.25
2023-02-07T14:18:05.806Z,17.73
2023-02-07T14:20:35.734Z,19.95
2023-02-07T14:23:58.668Z,18.60
2023-02-07T14:26:40.550Z,22.50
2023-02-07T14:29:25.102Z,17.92
2023-02-07T14:31:59.189Z,19.80
2023-02-07T14:34:31.043Z,18.97
2023-02-07T14:37:00.486Z,17.90
2023-02-07T14:39:31.463Z,17.67
2023-02-07T14:42:11.207Z,19.05
2023-02-07T14:44:41.636Z,19.73
2023-02-07T14:47:19.906Z,17.65
2023-02-07T14:49:49.262Z,20.85
2023-02-07T14:52:29.129Z,21.27
2023-02-07T14:55:17.118Z,19.25
2023-02-07T14:57:57.678Z,17.05
2023-02-07T15:00:29.159Z,17.77
2023-02-07T15:03:06.294Z,17.38
2023-02-07T15:05:38.660Z,21.05
2023-02-07T15:08:09.003Z,19.02
2023-02-07T15:10:45.157Z,19.90
2023-02-07T15:13:31.281Z,24.30
2023-02-07T15:16:05.925Z,21.83
2023-02-07T15:18:37.863Z,22.88
2023-02-07T15:21:06.064Z,23.95
2023-02-07T15:23:33.140Z,21.27
2023-02-07T15:26:05.667Z,21.33
2023-02-07T15:28:33.209Z,24.55
2023-02-07T15:31:04.608Z,24.85
2023-02-07T15:33:39.602Z,28.45
2023-02-07T15:36:28.318Z,25.85
2023-02-07T15:38:55.274Z,22.65
2023-02-07T15:41:21.860Z,24.23
2023-02-07T15:44:03.220Z,26.10
2023-02-07T15:46:50.665Z,24.92
2023-02-07T15:49:26.607Z,26.60
2023-02-07T15:51:57.375Z,25.27
2023-02-07T15:54:27.278Z,23.58
2023-02-07T15:57:00.624Z,26.67
2023-02-07T15:59:30.170Z,28.05
2023-02-07T16:02:02.744Z,23.80
2023-02-07T16:04:32.439Z,26.55
2023-02-07T16:07:04.313Z,29.77
2023-02-07T16:09:36.923Z,28.60
2023-02-07T16:12:41.787Z,23.15
2023-02-07T16:15:25.252Z,23.13
2023-02-07T16:17:51.828Z,28.00
2023-02-07T16:20:19.180Z,25.00
2023-02-07T16:22:47.303Z,24.85
2023-02-07T16:25:27.802Z,23.65
2023-02-07T16:27:54.778Z,25.67
2023-02-07T16:30:30.245Z,23.83
2023-02-07T16:32:56.787Z,60.22
2023-02-07T16:35:26.472Z,73.40
2023-02-07T16:37:54.677Z,27.70
2023-02-07T16:40:26.706Z,26.83
2023-02-07T16:42:55.542Z,27.92
2023-02-07T16:45:24.933Z,26.13
2023-02-07T16:47:51.669Z,26.80
2023-02-07T16:50:23.866Z,27.45
2023-02-07T16:52:52.060Z,27.40
2023-02-07T16:55:20.774Z,23.02
2023-02-07T16:57:49.034Z,31.05
2023-02-07T17:00:22.260Z,27.65
2023-02-07T17:02:50.537Z,29.65
2023-02-07T17:05:21.624Z,33.58
2023-02-07T17:07:49.923Z,27.80
2023-02-07T17:10:27.912Z,28.88
2023-02-07T17:12:54.647Z,30.20
2023-02-07T17:15:21.796Z,29.50
2023-02-07T17:17:48.768Z,32.58
2023-02-07T17:20:26.193Z,30.33
2023-02-07T17:22:53.518Z,30.48
2023-02-07T17:25:22.373Z,38.70
2023-02-07T17:27:49.044Z,30.50
2023-02-07T17:30:25.231Z,32.13
2023-02-07T17:32:52.220Z,30.58
2023-02-07T17:35:20.772Z,31.80
2023-02-07T17:37:50.694Z,30.00
2023-02-07T17:40:23.333Z,34.33
2023-02-07T17:42:50.456Z,32.42
2023-02-07T17:45:17.504Z,32.75
2023-02-07T17:47:44.217Z,33.35
2023-02-07T17:50:17.912Z,35.70
2023-02-07T17:52:46.825Z,31.80
2023-02-07T17:55:14.757Z,33.70
2023-02-07T17:57:42.388Z,30.92
2023-02-07T18:00:18.200Z,30.15
2023-02-07T18:02:47.497Z,32.05
2023-02-07T18:05:15.438Z,31.33
2023-02-07T18:07:43.106Z,36.05
2023-02-07T18:10:12.077Z,29.45
2023-02-07T18:12:38.620Z,34.13
2023-02-07T18:15:08.456Z,44.83
2023-02-07T18:17:36.428Z,35.85
2023-02-07T18:20:05.217Z,33.72
2023-02-07T18:22:31.806Z,33.03
2023-02-07T18:24:58.398Z,26.23
2023-02-07T18:27:25.226Z,29.98
2023-02-07T18:29:52.014Z,25.13
2023-02-07T18:32:18.647Z,32.97
2023-02-07T18:34:45.248Z,30.00
2023-02-07T18:37:11.843Z,29.65
2023-02-07T18:39:38.442Z,29.90
2023-02-07T18:42:05.071Z,27.17
2023-02-07T18:44:31.637Z,27.50
2023-02-07T18:46:58.220Z,30.65
2023-02-07T18:49:24.772Z,29.08
2023-02-07T18:51:51.286Z,27.60
2023-02-07T18:54:20.235Z,32.47
2023-02-07T18:56:52.198Z,32.55
2023-02-07T18:59:24.058Z,31.17
2023-02-07T19:01:53.556Z,32.25
2023-02-07T19:04:21.169Z,33.13
2023-02-07T19:06:52.112Z,33.38
2023-02-07T19:09:21.185Z,28.65
2023-02-07T19:11:51.148Z,31.42
2023-02-07T19:14:20.411Z,32.45
2023-02-07T19:16:49.479Z,36.85
2023-02-07T19:19:16.292Z,38.40
2023-02-07T19:21:42.902Z,36.97
2023-02-07T19:24:15.848Z,38.78
2023-02-07T19:26:43.200Z,40.85
2023-02-07T19:29:10.127Z,42.13
2023-02-07T19:31:37.677Z,39.63
2023-02-07T19:34:04.275Z,36.53
2023-02-07T19:36:31.385Z,41.50
2023-02-07T19:38:59.244Z,47.55
2023-02-07T19:41:28.021Z,39.78
2023-02-07T19:43:55.118Z,34.53
2023-02-07T19:46:22.073Z,40.83
2023-02-07T19:48:49.518Z,34.50
2023-02-07T19:51:19.177Z,39.88
2023-02-07T19:53:47.533Z,36.58
2023-02-07T19:56:14.226Z,42.45
2023-02-07T19:58:43.551Z,37.08
2023-02-07T20:01:11.500Z,43.22
2023-02-07T20:03:39.552Z,38.38
2023-02-07T20:06:10.436Z,39.60
2023-02-07T20:08:39.514Z,41.05
2023-02-07T20:11:11.463Z,40.30
2023-02-07T20:13:41.416Z,39.05
2023-02-07T20:16:10.761Z,46.42
2023-02-07T20:18:37.389Z,43.65
2023-02-07T20:21:11.281Z,43.75
2023-02-07T20:23:44.212Z,42.53
2023-02-07T20:26:16.262Z,43.30
2023-02-07T20:28:43.531Z,41.75
2023-02-07T20:31:12.105Z,42.45
2023-02-07T20:33:40.568Z,48.42
2023-02-07T20:36:08.118Z,40.85
2023-02-07T20:38:35.124Z,41.33
2023-02-07T20:41:11.173Z,48.83
2023-02-07T20:43:38.198Z,45.42
2023-02-07T20:46:10.809Z,51.35
2023-02-07T20:48:37.420Z,45.63
2023-02-07T20:51:10.578Z,46.65
2023-02-07T20:53:42.088Z,47.85
2023-02-07T20:56:17.342Z,56.53
2023-02-07T20:58:47.315Z,45.03
2023-02-07T21:01:19.788Z,45.72
2023-02-07T21:03:46.872Z,47.92
2023-02-07T21:06:13.563Z,46.45
2023-02-07T21:08:41.542Z,43.67
2023-02-07T21:11:09.103Z,51.72
2023-02-07T21:13:36.936Z,45.67
2023-02-07T21:16:05.510Z,43.67
2023-02-07T21:18:33.468Z,43.40
2023-02-07T21:21:00.778Z,47.30
2023-02-07T21:23:27.348Z,54.08
2023-02-07T21:25:54.065Z,51.42
2023-02-07T21:28:20.731Z,45.22
2023-02-07T21:30:47.406Z,41.88
2023-02-07T21:33:14.186Z,44.75
2023-02-07T21:35:40.755Z,44.40
2023-02-07T21:38:07.315Z,49.78
2023-02-07T21:40:34.399Z,50.72
2023-02-07T21:43:01.133Z,48.50
2023-02-07T21:45:28.014Z,41.38
2023-02-07T21:47:54.652Z,47.88
2023-02-07T21:50:21.221Z,46.22
2023-02-07T21:52:47.802Z,53.38
2023-02-07T21:55:14.395Z,48.03
2023-02-07T21:57:40.984Z,49.63
2023-02-07T22:00:08.336Z,57.92
2023-02-07T22:02:35.351Z,45.25
2023-02-07T22:05:02.373Z,49.25
2023-02-07T22:07:28.894Z,51.58
2023-02-07T22:09:55.445Z,51.55
2023-02-07T22:12:21.964Z,50.92
2023-02-07T22:14:48.514Z,49.35
2023-02-07T22:17:15.064Z,56.28
2023-02-07T22:19:41.702Z,54.70
2023-02-07T22:22:08.384Z,50.22
2023-02-07T22:24:34.961Z,52.47
2023-02-07T22:27:01.533Z,58.25
2023-02-07T22:29:28.144Z,54.47
2023-02-07T22:31:55.227Z,54.63
2023-02-07T22:34:21.877Z,57.95
2023-02-07T22:36:48.588Z,54.88
2023-02-07T22:39:17.414Z,52.10
2023-02-07T22:41:44.751Z,62.40
2023-02-07T22:44:11.532Z,56.53
2023-02-07T22:46:38.608Z,57.75
2023-02-07T22:49:05.177Z,56.58
2023-02-07T22:51:35.127Z,63.72
2023-02-07T22:54:05.746Z,62.22
2023-02-07T22:56:33.917Z,56.95
2023-02-07T22:59:00.471Z,67.75
2023-02-07T23:01:32.984Z,68.57
2023-02-07T23:04:02.050Z,55.55
2023-02-07T23:06:28.673Z,57.42
2023-02-07T23:08:55.411Z,60.35
2023-02-07T23:11:23.903Z,66.85
2023-02-07T23:13:52.045Z,55.00
2023-02-07T23:16:21.919Z,56.15
2023-02-07T23:18:49.844Z,61.85
2023-02-07T23:21:19.080Z,56.90
2023-02-07T23:23:45.980Z,62.95
2023-02-07T23:26:16.555Z,63.45
2023-02-07T23:28:43.713Z,60.53
2023-02-07T23:31:12.318Z,56.90
2023-02-07T23:33:39.473Z,62.72
2023-02-07T23:36:07.162Z,62.35
2023-02-07T23:38:34.217Z,69.45
2023-02-07T23:41:04.062Z,57.92
2023-02-07T23:43:30.664Z,63.92
2023-02-07T23:45:57.266Z,73.85
2023-02-07T23:48:23.845Z,68.75
2023-02-07T23:50:54.649Z,72.32
2023-02-07T23:53:22.200Z,75.28
2023-02-07T23:55:50.357Z,69.20
2023-02-07T23:58:17.462Z,70.75
